Time;durP1;ratioP1;P1;durP2;ratioP2;P2;SDS_P1;SDS_P2;PMS_P1;PMS_P2;Temp;Humidity;BMP_temperature;BMP_pressure;BME280_temperature;BME280_humidity;BME280_pressure;Samples;Min_cycle;Max_cycle;Signal;HPM_P1;HPM_P2
2022/07/14 00:00:13;;;;;;;0.50;0.40;;;19.70;1.40;;;21.15;89.31;95786.91;646521;216;31808;-76
2022/07/14 00:02:55;;;;;;;1.20;0.60;;;19.80;1.40;;;21.17;89.44;95786.95;647175;212;31875;-76
2022/07/14 00:05:36;;;;;;;0.62;0.57;;;19.80;1.40;;;21.20;89.74;95779.10;646071;216;31673;-77
2022/07/14 00:08:18;;;;;;;0.80;0.70;;;19.70;1.40;;;21.21;90.44;95775.17;646815;212;31507;-76
2022/07/14 00:11:00;;;;;;;0.80;0.80;;;19.70;1.40;;;21.16;90.75;95779.13;647232;216;31510;-76
2022/07/14 00:13:41;;;;;;;1.00;0.90;;;19.60;1.40;;;21.22;89.02;95774.70;647171;216;31678;-76
2022/07/14 00:16:23;;;;;;;0.60;0.60;;;19.80;1.40;;;21.22;88.98;95771.73;646029;216;31674;-76
2022/07/14 00:19:05;;;;;;;0.70;0.70;;;19.90;1.40;;;21.25;88.98;95775.09;647195;212;31498;-74
2022/07/14 00:21:49;;;;;;;1.40;0.80;;;19.90;1.40;;;21.27;88.70;95763.41;646200;216;31522;-74
2022/07/14 00:24:31;;;;;;;1.00;0.80;;;19.90;1.40;;;21.31;88.17;95762.08;646461;212;31519;-75
2022/07/14 00:27:13;;;;;;;1.05;0.95;;;19.90;1.40;;;21.39;87.77;95762.56;645670;216;31563;-75
2022/07/14 00:29:54;;;;;;;0.80;0.60;;;20.00;1.40;;;21.40;87.51;95764.66;647005;216;31492;-75
2022/07/14 00:32:36;;;;;;;1.20;0.80;;;19.90;1.40;;;21.39;87.85;95766.12;647771;212;32040;-75
2022/07/14 00:35:51;;;;;;;0.97;0.80;;;19.90;1.40;;;21.34;88.42;95768.93;646117;212;31550;-77
2022/07/14 00:38:33;;;;;;;0.88;0.60;;;19.80;1.40;;;21.16;91.49;95775.95;646482;216;31510;-77
2022/07/14 00:41:15;;;;;;;0.80;0.60;;;19.60;1.40;;;21.10;92.06;95777.34;646651;216;32765;-76
2022/07/14 00:43:56;;;;;;;1.30;0.80;;;19.50;1.40;;;21.07;93.67;95770.27;646629;212;31603;-76
2022/07/14 00:46:38;;;;;;;0.60;0.60;;;19.40;1.40;;;21.08;94.05;95771.18;647517;212;31591;-76
2022/07/14 00:51:57;;;;;;;0.88;0.70;;;19.30;1.40;;;20.92;94.67;95773.94;618639;225;32407;-76
2022/07/14 00:54:38;;;;;;;0.80;0.80;;;19.50;1.40;;;20.95;94.11;95764.09;646865;216;31493;-76
2022/07/14 00:57:20;;;;;;;0.70;0.70;;;19.60;1.40;;;21.02;93.60;95757.55;646269;212;31471;-76
2022/07/14 01:00:02;;;;;;;1.07;0.67;;;19.60;1.40;;;21.01;95.99;95753.14;631725;217;31646;-76
2022/07/14 01:02:44;;;;;;;1.17;0.90;;;19.30;1.40;;;20.98;95.71;95754.15;645945;215;31983;-77
2022/07/14 01:05:25;;;;;;;1.40;1.00;;;19.10;1.40;;;20.96;97.01;95761.14;646310;216;31555;-77
2022/07/14 01:08:10;;;;;;;1.10;0.80;;;19.00;1.40;;;20.90;97.36;95773.53;645857;216;31538;-76
2022/07/14 01:10:52;;;;;;;0.80;0.60;;;19.00;1.40;;;20.89;95.64;95778.33;646051;216;31880;-78
2022/07/14 01:13:34;;;;;;;0.70;0.65;;;19.20;1.40;;;20.96;95.07;95777.73;646900;216;31471;-77
2022/07/14 01:16:15;;;;;;;0.88;0.70;;;19.60;1.40;;;20.98;95.14;95773.59;647568;216;31916;-76
2022/07/14 01:18:57;;;;;;;0.77;0.77;;;19.70;1.40;;;21.16;93.29;95770.94;647604;216;31851;-76
2022/07/14 01:21:38;;;;;;;1.00;0.90;;;19.90;1.40;;;21.36;91.16;95771.28;646493;216;31615;-76
2022/07/14 01:24:20;;;;;;;0.70;0.70;;;20.10;1.40;;;21.48;90.22;95764.08;648476;216;31761;-75
2022/07/14 01:27:02;;;;;;;2.30;1.00;;;20.10;1.40;;;21.50;90.49;95761.17;646967;216;31470;-75
2022/07/14 01:29:43;;;;;;;0.80;0.80;;;20.10;1.40;;;21.36;92.07;95755.84;647411;212;31512;-75
2022/07/14 01:32:25;;;;;;;1.10;1.00;;;20.00;1.40;;;21.30;92.44;95752.11;646399;212;31584;-75
2022/07/14 01:35:52;;;;;;;1.90;0.67;;;19.90;1.40;;;21.29;92.06;95752.77;645838;216;31684;-75
2022/07/14 01:38:34;;;;;;;1.10;0.80;;;19.90;1.40;;;21.26;92.07;95749.48;644847;216;31537;-75
2022/07/14 01:41:16;;;;;;;1.40;1.08;;;19.90;1.40;;;21.24;92.08;95739.95;647682;216;31521;-75
2022/07/14 01:44:01;;;;;;;0.80;0.80;;;19.90;1.40;;;21.23;91.95;95740.36;646039;216;31556;-76
2022/07/14 01:46:42;;;;;;;1.00;0.70;;;19.80;1.40;;;21.22;91.64;95733.79;646276;216;31817;-75
2022/07/14 01:49:26;;;;;;;0.90;0.90;;;19.90;1.40;;;21.15;92.39;95727.05;647103;212;31898;-75
2022/07/14 01:52:08;;;;;;;1.00;0.90;;;19.80;1.40;;;21.16;92.99;95733.05;645449;212;31630;-75
2022/07/14 01:54:50;;;;;;;1.40;0.80;;;19.60;1.40;;;21.06;93.42;95730.23;647411;216;31521;-75
2022/07/14 01:57:31;;;;;;;0.90;0.60;;;19.70;1.40;;;21.08;93.35;95722.91;647389;216;31510;-75
2022/07/14 02:00:14;;;;;;;0.80;0.70;;;19.80;1.40;;;21.08;93.20;95724.19;646806;216;31528;-75
2022/07/14 02:02:55;;;;;;;0.90;0.70;;;19.80;1.40;;;21.10;93.23;95729.02;648291;216;31603;-76
2022/07/14 02:05:37;;;;;;;1.12;0.90;;;19.70;1.40;;;20.99;94.77;95736.28;647009;216;31494;-74
2022/07/14 02:08:19;;;;;;;0.88;0.60;;;19.60;1.40;;;20.85;96.06;95736.62;617844;226;31819;-75
2022/07/14 02:13:48;;;;;;;1.20;0.80;;;19.40;1.40;;;20.57;98.61;95736.03;646640;216;42473;-74
2022/07/14 02:16:30;;;;;;;0.50;0.50;;;19.20;1.40;;;20.40;100.00;95740.89;646407;216;42124;-75
2022/07/14 02:19:11;;;;;;;0.98;0.73;;;19.10;1.40;;;20.35;100.00;95741.80;647483;216;42134;-75
2022/07/14 02:21:53;;;;;;;2.03;0.70;;;19.00;1.40;;;20.32;100.00;95740.81;646968;216;31489;-75
2022/07/14 02:24:35;;;;;;;1.85;1.02;;;19.00;1.40;;;20.28;99.89;95737.27;645777;216;42128;-75
2022/07/14 02:27:16;;;;;;;1.30;1.20;;;18.90;1.40;;;20.26;100.00;95742.73;647331;215;31561;-75
2022/07/14 02:30:01;;;;;;;0.90;0.80;;;18.80;1.40;;;20.24;98.83;95745.80;646117;216;31552;-76
2022/07/14 02:32:43;;;;;;;0.90;0.80;;;18.90;1.40;;;20.23;98.45;95742.45;647462;216;31458;-74
2022/07/14 02:35:51;;;;;;;0.80;0.70;;;18.70;1.40;;;20.09;99.93;95740.81;646151;216;31555;-75
2022/07/14 02:38:33;;;;;;;1.27;0.70;;;18.50;1.40;;;19.95;100.00;95743.52;646646;216;31813;-74
2022/07/14 02:41:17;;;;;;;1.05;0.80;;;18.10;1.40;;;19.80;100.00;95749.80;645888;212;31515;-75
2022/07/14 02:43:59;;;;;;;0.80;0.80;;;18.10;1.40;;;19.68;100.00;95753.92;647344;216;42261;-74
2022/07/14 02:46:44;;;;;;;0.80;0.70;;;18.00;1.40;;;19.59;100.00;95755.64;647231;216;31590;-75
2022/07/14 02:49:25;;;;;;;1.37;1.00;;;17.90;1.40;;;19.48;100.00;95750.69;647491;216;42693;-75
2022/07/14 02:52:07;;;;;;;0.77;0.75;;;17.80;1.40;;;19.47;100.00;95745.95;646278;212;31615;-76
2022/07/14 02:54:49;;;;;;;1.00;0.88;;;17.90;1.40;;;19.56;100.00;95751.55;644696;216;32108;-74
2022/07/14 02:57:30;;;;;;;1.10;1.00;;;18.20;1.40;;;19.64;100.00;95742.98;646536;212;31522;-75
2022/07/14 03:00:13;;;;;;;0.75;0.70;;;18.40;1.40;;;19.71;100.00;95740.83;647472;216;31483;-74
2022/07/14 03:02:54;;;;;;;2.30;0.90;;;18.50;1.40;;;19.76;100.00;95734.68;646753;216;31528;-75
2022/07/14 03:05:36;;;;;;;2.00;0.60;;;18.60;1.40;;;19.76;100.00;95731.17;646203;216;31614;-75
2022/07/14 03:08:18;;;;;;;0.73;0.73;;;18.40;1.40;;;19.76;100.00;95731.59;646613;212;31563;-74
2022/07/14 03:10:59;;;;;;;0.70;0.70;;;18.40;1.40;;;19.85;100.00;95732.29;646494;216;31984;-75
2022/07/14 03:13:41;;;;;;;1.00;0.90;;;18.50;1.40;;;19.86;100.00;95737.70;646673;216;42194;-75
2022/07/14 03:16:23;;;;;;;0.60;0.60;;;18.40;1.40;;;19.80;100.00;95743.39;646863;216;42114;-76
2022/07/14 03:19:04;;;;;;;1.10;0.80;;;18.20;1.40;;;19.89;99.64;95746.33;647085;212;42136;-75
2022/07/14 03:21:46;;;;;;;0.80;0.70;;;18.60;1.40;;;19.98;99.08;95751.06;647035;216;42142;-75
2022/07/14 03:24:31;;;;;;;1.10;0.80;;;18.80;1.40;;;20.08;97.96;95754.19;646152;212;42136;-75
2022/07/14 03:27:12;;;;;;;0.62;0.60;;;18.90;1.40;;;20.02;98.68;95755.52;647223;212;32128;-75
2022/07/14 03:29:54;;;;;;;0.93;0.73;;;18.80;1.40;;;19.95;99.81;95747.19;647600;216;31670;-75
2022/07/14 03:32:39;;;;;;;2.50;0.73;;;18.70;1.40;;;20.00;99.40;95742.60;618615;225;42899;-75
2022/07/14 03:35:51;;;;;;;0.85;0.85;;;18.70;1.40;;;20.04;98.80;95740.83;646567;212;32143;-76
2022/07/14 03:38:32;;;;;;;0.70;0.68;;;18.80;1.40;;;20.14;97.65;95738.00;647886;216;31681;-75
2022/07/14 03:41:14;;;;;;;0.90;0.75;;;18.90;1.40;;;20.19;97.28;95734.73;645397;216;42144;-75
2022/07/14 03:43:56;;;;;;;0.70;0.60;;;18.90;1.40;;;20.16;98.25;95725.31;646882;216;31793;-75
2022/07/14 03:46:38;;;;;;;0.70;0.70;;;18.80;1.40;;;20.12;100.00;95726.19;645729;216;42204;-75
2022/07/14 03:51:56;;;;;;;2.60;0.90;;;18.70;1.40;;;20.15;99.14;95725.20;647158;216;42696;-75
2022/07/14 03:54:38;;;;;;;1.20;0.80;;;18.70;1.40;;;20.19;97.91;95727.30;646699;216;42646;-75
2022/07/14 03:57:20;;;;;;;0.73;0.73;;;18.90;1.40;;;20.29;96.48;95724.71;645519;216;31673;-75
2022/07/14 04:00:01;;;;;;;3.60;1.02;;;18.90;1.40;;;20.31;95.85;95722.19;647575;212;31910;-75
2022/07/14 04:02:43;;;;;;;1.52;0.80;;;19.00;1.40;;;20.45;94.18;95730.70;646249;212;34797;-75
2022/07/14 04:05:25;;;;;;;0.90;0.70;;;19.20;1.40;;;20.55;93.08;95741.66;646340;212;31949;-75
2022/07/14 04:08:06;;;;;;;0.93;0.80;;;19.20;1.40;;;20.49;93.12;95745.89;646264;216;31598;-75
2022/07/14 04:10:48;;;;;;;0.98;0.60;;;19.20;1.40;;;20.43;93.38;95744.34;647416;212;42388;-75
2022/07/14 04:13:32;;;;;;;1.00;0.77;;;19.20;1.40;;;20.39;93.64;95748.16;646519;212;31657;-75
2022/07/14 04:16:12;;;;;;;1.90;0.75;;;19.10;1.40;;;20.46;92.96;95751.14;646269;216;31495;-75
2022/07/14 04:18:53;;;;;;;0.80;0.80;;;19.20;1.40;;;20.56;92.59;95751.41;647031;216;31492;-74
2022/07/14 04:21:36;;;;;;;1.95;0.70;;;19.30;1.40;;;20.71;91.89;95751.03;647156;216;31519;-74
2022/07/14 04:24:17;;;;;;;0.90;0.90;;;19.40;1.40;;;20.85;91.49;95752.59;646335;212;31579;-74
2022/07/14 04:26:59;;;;;;;1.10;1.00;;;19.50;1.40;;;21.02;90.86;95748.78;646185;216;32224;-74
2022/07/14 04:29:41;;;;;;;0.90;0.70;;;19.60;1.40;;;21.25;91.19;95744.56;646329;216;31552;-74
2022/07/14 04:32:22;;;;;;;0.88;0.88;;;19.60;1.40;;;21.29;89.46;95747.27;647063;216;31490;-74
2022/07/14 04:35:50;;;;;;;0.90;0.80;;;19.70;1.40;;;21.33;89.48;95749.98;645866;216;32705;-75
2022/07/14 04:38:32;;;;;;;1.58;0.90;;;19.80;1.40;;;21.44;87.59;95750.33;646820;216;31500;-76
2022/07/14 04:41:14;;;;;;;0.90;0.70;;;20.10;1.40;;;21.55;86.42;95752.37;646880;212;31507;-75
2022/07/14 04:43:55;;;;;;;0.93;0.80;;;20.20;1.40;;;21.62;85.74;95748.75;646519;212;31836;-74
2022/07/14 04:46:37;;;;;;;0.70;0.70;;;20.40;1.40;;;21.67;86.05;95744.99;646276;216;31536;-75
2022/07/14 04:52:09;;;;;;;1.10;0.90;;;20.30;1.40;;;21.74;86.67;95746.27;647428;216;31518;-75
2022/07/14 04:54:51;;;;;;;1.90;0.90;;;20.30;1.40;;;21.72;86.18;95748.06;647896;216;31513;-74
2022/07/14 04:57:35;;;;;;;0.70;0.62;;;20.30;1.40;;;21.76;85.93;95748.94;619180;222;31878;-75
2022/07/14 05:00:17;;;;;;;1.40;1.30;;;20.30;1.40;;;21.70;85.17;95746.67;645363;216;31687;-75
2022/07/14 05:02:59;;;;;;;2.90;0.70;;;20.30;1.40;;;21.66;84.28;95747.69;619064;226;31935;-74
2022/07/14 05:05:41;;;;;;;1.15;0.73;;;20.30;1.40;;;21.67;84.45;95752.61;646486;216;31616;-75
2022/07/14 05:08:22;;;;;;;1.20;1.02;;;20.30;1.40;;;21.65;84.74;95751.76;647807;212;31535;-75
2022/07/14 05:11:05;;;;;;;0.80;0.63;;;20.30;1.40;;;21.61;85.29;95749.95;646223;216;31831;-73
2022/07/14 05:13:46;;;;;;;0.77;0.73;;;20.30;1.40;;;21.57;86.09;95752.65;647731;216;31614;-75
2022/07/14 05:16:28;;;;;;;0.85;0.80;;;20.20;1.40;;;21.54;86.40;95758.80;646531;213;31499;-74
2022/07/14 05:19:10;;;;;;;2.00;0.70;;;20.00;1.40;;;21.57;85.97;95765.06;647191;212;31759;-74
2022/07/14 05:21:53;;;;;;;1.10;1.00;;;20.00;1.40;;;21.66;85.68;95763.34;646331;216;31500;-74
2022/07/14 05:24:34;;;;;;;1.30;0.85;;;20.40;1.40;;;21.82;84.87;95764.75;647408;216;31475;-74
2022/07/14 05:27:15;;;;;;;0.80;0.70;;;20.60;1.40;;;21.98;83.85;95769.06;645882;212;31527;-75
2022/07/14 05:29:57;;;;;;;3.50;0.80;;;20.80;1.40;;;22.17;82.31;95765.73;645879;216;31553;-74
2022/07/14 05:35:55;;;;;;;0.90;0.70;;;21.10;1.40;;;22.50;80.75;95762.77;647473;212;31776;-73
2022/07/14 05:38:36;;;;;;;2.30;1.20;;;21.40;1.40;;;22.75;79.36;95765.06;646530;216;31603;-73
2022/07/14 05:41:19;;;;;;;2.33;0.65;;;21.60;1.40;;;22.85;79.21;95759.55;646458;216;31760;-75
2022/07/14 05:44:02;;;;;;;1.00;0.70;;;21.70;1.40;;;22.95;80.60;95752.67;648026;216;31636;-74
2022/07/14 05:46:44;;;;;;;0.80;0.80;;;21.70;1.40;;;23.04;80.09;95750.27;645873;216;31488;-74
2022/07/14 05:49:27;;;;;;;0.98;0.68;;;21.70;1.40;;;23.14;79.83;95748.31;621034;222;32028;-75
2022/07/14 05:52:11;;;;;;;1.58;1.02;;;21.80;1.40;;;23.22;75.82;95752.06;646072;216;31693;-73
2022/07/14 05:54:53;;;;;;;1.30;0.90;;;22.00;1.40;;;23.33;74.73;95747.77;646925;216;31710;-74
2022/07/14 05:57:34;;;;;;;2.43;1.10;;;22.10;1.40;;;23.38;76.30;95748.32;618703;226;31952;-75
2022/07/14 06:00:16;;;;;;;3.17;1.30;;;22.10;1.40;;;23.49;77.59;95743.67;647533;216;31651;-74
2022/07/14 06:02:58;;;;;;;1.20;0.70;;;22.10;1.40;;;23.59;77.01;95746.31;646212;215;31523;-75
2022/07/14 06:05:43;;;;;;;1.25;0.90;;;22.30;1.40;;;23.68;76.61;95743.05;647776;216;33576;-74
2022/07/14 06:08:24;;;;;;;3.00;1.05;;;22.30;1.40;;;23.71;76.12;95742.55;619361;225;31879;-74
2022/07/14 06:11:09;;;;;;;2.45;0.80;;;22.40;1.40;;;23.76;74.10;95744.18;645869;216;32222;-74
2022/07/14 06:13:51;;;;;;;0.80;0.80;;;22.50;1.40;;;23.79;72.68;95742.80;647264;216;32771;-75
2022/07/14 06:16:32;;;;;;;2.50;0.82;;;22.60;1.40;;;23.89;72.94;95740.92;646091;216;31620;-74
2022/07/14 06:19:14;;;;;;;3.20;0.80;;;22.70;1.40;;;24.03;70.56;95742.31;646418;216;31720;-75
2022/07/14 06:21:58;;;;;;;3.00;1.00;;;22.80;1.40;;;24.20;71.13;95734.05;619316;226;31813;-77
2022/07/14 06:24:48;;;;;;;1.27;0.70;;;23.00;1.40;;;24.45;67.77;95729.89;646535;216;31466;-76
2022/07/14 06:27:27;;;;;;;2.08;0.80;;;23.30;1.40;;;24.66;67.19;95728.16;631594;221;31634;-75
2022/07/14 06:30:15;;;;;;;1.12;0.73;;;23.50;1.40;;;24.97;66.67;95719.24;646751;216;31513;-76
2022/07/14 06:35:52;;;;;;;0.77;0.73;;;24.20;1.40;;;26.05;64.38;95707.80;646237;216;31632;-76
2022/07/14 06:38:34;;;;;;;2.50;0.60;;;24.70;1.40;;;26.23;60.41;95704.77;646383;216;31559;-75
2022/07/14 06:41:16;;;;;;;1.40;0.60;;;24.80;1.40;;;26.47;60.63;95702.81;647057;216;31481;-75
2022/07/14 06:43:58;;;;;;;0.70;0.65;;;25.00;1.40;;;26.69;59.86;95697.87;647202;212;31501;-76
2022/07/14 06:46:39;;;;;;;0.80;0.65;;;25.10;1.40;;;26.77;59.65;95694.27;645953;212;31567;-77
2022/07/14 06:49:27;;;;;;;0.80;0.60;;;25.20;1.40;;;26.68;57.98;95694.39;645522;212;31535;-74
2022/07/14 06:52:09;;;;;;;0.95;0.70;;;25.10;1.40;;;26.77;57.16;95693.57;646787;212;31540;-74
2022/07/14 06:54:50;;;;;;;0.60;0.60;;;25.20;1.40;;;26.79;56.72;95689.73;647260;216;31635;-74
2022/07/14 06:57:32;;;;;;;0.70;0.70;;;25.20;1.40;;;26.96;56.99;95686.44;645475;216;32298;-74
2022/07/14 07:00:14;;;;;;;0.80;0.70;;;25.40;1.40;;;27.26;56.31;95684.20;646739;216;32082;-74
2022/07/14 07:02:56;;;;;;;0.90;0.60;;;25.80;1.40;;;27.60;54.02;95685.44;647269;216;31551;-75
2022/07/14 07:08:25;;;;;;;1.60;0.70;;;26.10;1.40;;;27.94;52.93;95694.52;646087;216;31626;-74
2022/07/14 07:11:07;;;;;;;1.03;0.60;;;26.10;1.40;;;28.36;53.30;95692.92;647658;216;31591;-75
2022/07/14 07:13:48;;;;;;;0.70;0.70;;;26.60;1.40;;;28.12;53.24;95693.61;647117;216;31506;-75
2022/07/14 07:16:30;;;;;;;0.90;0.50;;;26.60;1.40;;;28.40;54.52;95692.88;647666;212;31691;-75
2022/07/14 07:19:12;;;;;;;1.77;0.60;;;26.60;1.40;;;28.00;54.53;95689.80;645633;216;42178;-75
2022/07/14 07:21:53;;;;;;;1.10;0.80;;;26.30;1.40;;;27.70;54.54;95695.84;647859;216;42083;-75
2022/07/14 07:24:35;;;;;;;1.00;0.90;;;25.90;1.40;;;27.43;56.06;95691.16;647876;216;31553;-75
2022/07/14 07:27:17;;;;;;;3.17;0.80;;;25.70;1.40;;;27.60;55.98;95686.81;646549;212;42297;-74
2022/07/14 07:30:00;;;;;;;0.73;0.57;;;25.90;1.40;;;27.74;53.72;95682.77;646964;216;31498;-75
2022/07/14 07:32:42;;;;;;;0.82;0.60;;;26.40;1.40;;;28.23;52.32;95689.93;646210;216;42204;-75
2022/07/14 07:35:50;;;;;;;1.30;0.65;;;26.70;1.40;;;28.13;52.25;95682.54;644924;216;42310;-75
2022/07/14 07:38:32;;;;;;;1.67;1.10;;;26.60;1.40;;;28.19;48.80;95684.01;645951;216;31512;-75
2022/07/14 07:41:17;;;;;;;0.98;0.80;;;26.50;1.40;;;27.84;52.18;95681.24;647376;216;42141;-74
2022/07/14 07:43:58;;;;;;;1.00;0.80;;;26.10;1.40;;;27.81;53.26;95679.16;647245;216;42714;-75
2022/07/14 07:46:40;;;;;;;0.70;0.70;;;26.30;1.40;;;27.82;51.05;95677.39;646350;212;31569;-74
2022/07/14 07:49:57;;;;;;;1.75;0.80;;;26.50;1.40;;;28.06;52.18;95670.30;615666;224;32418;-74
2022/07/14 07:52:38;;;;;;;1.30;0.70;;;26.80;1.40;;;28.35;52.14;95664.06;643903;212;31673;-75
2022/07/14 07:55:23;;;;;;;0.80;0.80;;;27.00;1.40;;;28.41;50.69;95658.13;647113;216;42194;-74
2022/07/14 07:58:05;;;;;;;1.50;0.80;;;27.00;1.40;;;28.58;52.55;95656.31;645920;216;31867;-75
2022/07/14 08:00:47;;;;;;;0.80;0.68;;;27.20;1.40;;;28.38;51.07;95659.88;647239;212;31720;-75
2022/07/14 08:03:29;;;;;;;0.60;0.60;;;27.00;1.40;;;28.41;50.12;95655.72;646112;212;42364;-75
2022/07/14 08:06:17;;;;;;;1.20;0.77;;;27.20;1.40;;;28.48;46.28;95649.50;645869;216;42174;-77
2022/07/14 08:09:04;;;;;;;1.40;0.85;;;27.20;1.40;;;28.52;46.29;95647.81;646207;216;42132;-74
2022/07/14 08:11:46;;;;;;;3.97;0.90;;;27.30;1.40;;;28.53;45.82;95644.44;646662;212;42169;-75
2022/07/14 08:17:18;;;;;;;1.10;0.80;;;27.30;1.40;;;28.83;47.49;95636.75;648771;216;42103;-74
2022/07/14 08:19:59;;;;;;;3.60;0.80;;;27.70;1.40;;;28.90;47.64;95632.40;647265;212;31521;-75
2022/07/14 08:22:44;;;;;;;0.80;0.80;;;27.70;1.40;;;29.03;46.68;95628.17;644800;212;42830;-75
2022/07/14 08:25:26;;;;;;;1.00;0.70;;;27.80;1.40;;;28.98;45.14;95619.63;647556;216;31486;-75
2022/07/14 08:28:08;;;;;;;1.00;0.80;;;27.60;1.40;;;28.98;45.49;95615.61;646366;216;42581;-75
2022/07/14 08:30:49;;;;;;;0.80;0.80;;;27.60;1.40;;;28.88;45.39;95614.38;646964;212;31549;-74
2022/07/14 08:35:51;;;;;;;0.80;0.70;;;27.40;1.40;;;28.84;45.66;95616.02;646895;212;31646;-75
2022/07/14 08:38:33;;;;;;;1.40;0.60;;;27.50;1.40;;;28.78;45.30;95610.34;645685;216;42154;-75
2022/07/14 08:41:15;;;;;;;1.12;0.62;;;27.50;1.40;;;29.01;45.31;95607.00;647999;212;31496;-75
2022/07/14 08:43:57;;;;;;;0.80;0.80;;;27.80;1.40;;;29.28;43.55;95603.36;619802;226;32098;-75
2022/07/14 08:46:38;;;;;;;1.00;0.70;;;28.00;1.40;;;29.54;42.54;95603.55;647744;216;31761;-75
2022/07/14 08:49:23;;;;;;;0.80;0.70;;;28.30;1.40;;;29.80;42.48;95598.40;645628;212;32007;-75
2022/07/14 08:52:05;;;;;;;1.20;0.40;;;28.50;1.40;;;29.96;42.29;95601.68;646833;212;31583;-75
2022/07/14 08:54:46;;;;;;;1.50;0.50;;;28.70;1.40;;;30.04;43.08;95599.35;647056;212;31474;-75
2022/07/14 08:57:28;;;;;;;2.70;0.80;;;28.80;1.40;;;30.29;42.45;95596.25;646915;216;31743;-75
2022/07/14 09:00:16;;;;;;;1.52;0.50;;;29.00;1.40;;;30.53;42.21;95592.81;642424;215;31539;-76
2022/07/14 09:02:59;;;;;;;2.08;0.70;;;29.30;1.40;;;30.51;40.94;95588.70;647057;216;31509;-75
2022/07/14 09:05:41;;;;;;;1.80;1.30;;;29.30;1.40;;;30.44;42.01;95586.40;647694;213;31503;-75
2022/07/14 09:08:23;;;;;;;0.77;0.62;;;29.20;1.40;;;30.71;40.89;95583.62;646045;216;31469;-75
2022/07/14 09:11:05;;;;;;;1.00;0.70;;;29.50;1.40;;;30.66;40.94;95579.45;648360;216;32090;-75
2022/07/14 09:13:46;;;;;;;1.50;0.90;;;29.40;1.40;;;31.05;41.40;95579.28;647125;216;31469;-75
2022/07/14 09:16:30;;;;;;;0.70;0.70;;;29.90;1.40;;;31.15;40.03;95577.48;647068;213;31518;-76
2022/07/14 09:19:19;;;;;;;0.70;0.60;;;29.60;1.40;;;31.25;39.97;95573.53;641663;217;31463;-75
2022/07/14 09:22:01;;;;;;;2.58;0.90;;;29.80;1.40;;;31.29;40.39;95575.48;646907;216;31562;-75
2022/07/14 09:24:44;;;;;;;1.70;0.70;;;30.00;1.40;;;31.67;39.99;95567.32;645121;216;31476;-76
2022/07/14 09:27:28;;;;;;;3.00;0.70;;;30.40;1.40;;;32.11;38.49;95560.94;618807;226;32328;-75
2022/07/14 09:30:11;;;;;;;4.20;0.88;;;30.90;1.40;;;33.10;37.80;95553.37;646823;216;31540;-75
2022/07/14 09:32:56;;;;;;;1.60;0.80;;;33.40;1.40;;;34.06;36.67;95552.15;646972;212;31478;-75
2022/07/14 09:35:50;;;;;;;0.70;0.50;;;34.80;1.40;;;35.04;35.89;95548.28;647415;216;31570;-76
2022/07/14 09:38:35;;;;;;;1.20;0.80;;;35.20;1.40;;;35.33;35.12;95550.12;645498;216;31471;-75
2022/07/14 09:41:17;;;;;;;1.80;0.80;;;34.80;1.40;;;35.26;35.67;95551.88;646779;216;31496;-75
2022/07/14 09:44:12;;;;;;;0.80;0.80;;;34.10;1.40;;;35.20;35.36;95546.52;646828;212;31698;-76
2022/07/14 09:46:56;;;;;;;1.20;0.60;;;34.30;1.40;;;35.18;35.42;95542.44;619859;222;31839;-76
2022/07/14 09:49:37;;;;;;;0.90;0.90;;;33.60;1.40;;;34.95;34.45;95534.13;645985;213;31477;-75
2022/07/14 09:52:23;;;;;;;1.17;0.80;;;34.50;1.40;;;35.56;33.09;95531.45;645140;216;42337;-75
2022/07/14 09:55:08;;;;;;;0.60;0.60;;;35.20;1.40;;;37.73;33.46;95517.89;645604;216;31640;-75
2022/07/14 09:57:49;;;;;;;0.90;0.80;;;36.30;1.40;;;38.98;31.35;95518.63;647521;216;42776;-74
2022/07/14 10:00:31;;;;;;;0.95;0.95;;;37.20;1.40;;;38.45;30.42;95508.22;646512;216;31775;-74
2022/07/14 10:03:13;;;;;;;1.10;0.77;;;36.10;1.40;;;36.74;32.72;95521.40;646052;216;31857;-75
2022/07/14 10:05:55;;;;;;;0.70;0.70;;;35.00;1.40;;;36.12;32.79;95516.96;647489;216;31467;-74
2022/07/14 10:08:36;;;;;;;0.73;0.70;;;34.60;1.40;;;37.58;32.20;95506.77;645343;216;31689;-75
2022/07/14 10:11:21;;;;;;;0.67;0.60;;;35.70;1.40;;;38.74;30.90;95503.77;643818;216;41917;-79
2022/07/14 10:14:08;;;;;;;0.90;0.80;;;36.90;1.40;;;39.50;29.29;95502.94;646559;216;32164;-75
2022/07/14 10:16:50;;;;;;;1.50;0.80;;;36.60;1.40;;;37.97;30.82;95507.06;647794;216;31810;-74
2022/07/14 10:20:22;;;;;;;1.00;0.70;;;35.40;1.40;;;36.26;32.17;95508.24;619063;222;31923;-74
2022/07/14 10:23:04;;;;;;;0.70;0.70;;;34.50;1.40;;;35.58;31.98;95504.45;646213;216;31542;-75
2022/07/14 10:25:48;;;;;;;1.40;0.90;;;34.50;1.40;;;35.27;32.29;95509.34;646808;216;31628;-76
2022/07/14 10:28:39;;;;;;;0.90;0.70;;;33.60;1.40;;;34.74;32.37;95499.59;619339;226;32013;-77
2022/07/14 10:36:04;;;;;;;1.92;0.90;;;33.70;1.40;;;35.71;32.54;95494.20;646383;216;31510;-76
2022/07/14 10:39:19;;;;;;;3.12;0.80;;;34.70;1.40;;;36.70;32.47;95493.22;645793;212;31544;-76
2022/07/14 10:42:15;;;;;;;0.60;0.60;;;35.50;1.40;;;37.50;32.47;95487.98;646348;216;31860;-76
2022/07/14 10:44:59;;;;;;;1.30;1.20;;;35.30;1.40;;;36.43;31.13;95491.59;619782;226;32179;-75
2022/07/14 10:47:48;;;;;;;4.30;0.80;;;34.40;1.40;;;37.44;29.84;95476.17;647263;216;32036;-77
2022/07/14 10:50:31;;;;;;;1.58;0.90;;;35.30;1.40;;;37.37;31.25;95476.64;646317;216;31588;-74
2022/07/14 10:53:13;;;;;;;0.85;0.65;;;35.40;1.40;;;37.74;31.41;95477.87;646766;216;31659;-75
2022/07/14 10:55:55;;;;;;;0.70;0.70;;;35.30;1.40;;;35.90;32.39;95488.41;645279;212;31537;-75
2022/07/14 10:58:39;;;;;;;0.88;0.75;;;34.50;1.40;;;36.52;30.98;95471.36;647029;216;31579;-76
2022/07/14 11:01:21;;;;;;;0.95;0.90;;;35.00;1.40;;;38.10;30.42;95447.86;616420;229;31833;-75
2022/07/14 11:04:03;;;;;;;1.00;0.80;;;35.50;1.40;;;36.59;30.93;95467.58;646809;216;31669;-74
2022/07/14 11:06:45;;;;;;;1.02;0.90;;;34.40;1.40;;;36.25;31.02;95466.59;646243;212;31648;-75
2022/07/14 11:09:30;;;;;;;0.90;0.80;;;33.90;1.40;;;36.18;31.94;95460.70;645928;212;33042;-75
2022/07/14 11:12:13;;;;;;;2.50;0.98;;;34.20;1.40;;;35.99;31.65;95458.98;631287;221;32373;-76
2022/07/14 11:14:58;;;;;;;1.00;0.80;;;34.30;1.40;;;36.29;32.38;95455.61;619382;226;31857;-76
2022/07/14 11:17:39;;;;;;;0.80;0.80;;;34.90;1.40;;;37.00;30.46;95451.52;647019;216;31530;-76
2022/07/14 11:20:21;;;;;;;1.20;0.60;;;34.70;1.40;;;37.79;30.38;95448.31;646912;212;31484;-75
2022/07/14 11:23:25;;;;;;;1.10;0.77;;;35.00;1.40;;;38.05;29.32;95443.22;646351;216;32369;-77
2022/07/14 11:26:07;;;;;;;1.20;0.73;;;35.10;1.40;;;37.36;27.77;95437.77;645992;212;42315;-75
2022/07/14 11:28:49;;;;;;;0.70;0.57;;;34.90;1.40;;;37.72;28.75;95435.80;646007;212;31511;-75
2022/07/14 11:31:44;;;;;;;2.80;0.80;;;35.50;1.40;;;37.68;27.10;95435.73;619546;226;31942;-76
2022/07/14 11:38:39;;;;;;;1.20;0.80;;;34.90;1.40;;;37.40;26.85;95436.14;647138;212;42701;-75
2022/07/14 11:41:20;;;;;;;0.65;0.60;;;34.40;1.40;;;37.26;27.26;95433.77;645793;216;32237;-76
2022/07/14 11:44:02;;;;;;;5.10;0.80;;;34.60;1.40;;;37.60;26.63;95428.32;646300;216;31537;-76
2022/07/14 11:46:44;;;;;;;5.57;0.80;;;35.40;1.40;;;40.04;25.06;95419.79;646999;216;31479;-74
2022/07/14 11:49:26;;;;;;;3.00;1.00;;;37.20;1.40;;;38.87;25.87;95415.69;645763;216;32074;-73
2022/07/14 11:52:10;;;;;;;0.70;0.70;;;36.80;1.40;;;38.58;26.64;95412.42;645853;212;31531;-74
2022/07/14 11:54:53;;;;;;;1.85;1.00;;;36.10;1.40;;;37.08;27.63;95423.08;647577;216;31590;-74
2022/07/14 11:57:38;;;;;;;0.70;0.70;;;34.50;1.40;;;36.17;27.87;95409.76;645148;212;32109;-76
2022/07/14 12:00:20;;;;;;;0.62;0.62;;;33.60;1.40;;;37.78;26.83;95409.14;647615;216;31662;-74
2022/07/14 12:03:01;;;;;;;0.70;0.60;;;34.90;1.40;;;37.80;27.12;95397.92;647350;216;32137;-76
2022/07/14 12:05:43;;;;;;;0.82;0.73;;;34.80;1.40;;;37.69;26.57;95395.73;646397;216;33597;-75
2022/07/14 12:08:26;;;;;;;0.65;0.65;;;34.80;1.40;;;37.65;26.72;95386.03;646670;212;33565;-75